You are listening to:
RJAA Radar 120.2 - Tokyo, Japan

RJAA 121700Z AUTO 35010KT 9999 SCT017 12/11 Q1017 TEMPO 4000 BR FEW005 BKN008

If stream doesn't start automatically press the play button
If stream stops then reload player then press play